Monroe, Nebraska
Current Conditions -  °F | °C
As of 3:15 AM on Saturday 22 Nov 2014 (Local Time) from KOLU Reporting Station
Overcast Overcast  
Wind Chill: 28°   Ceiling: 300
Heat Index: 36°   Visibility: 2mi
Dew Point: 34°   Wind: 12mph
Humidity: 93%   Direction: 220°SW
Pressure: 29.9"   Gusts: NA
Location:  41.47°N, 97.6°W
Report Text: KOLU 220915Z AUTO 22010KT 2SM OVC003 02/01 A2990 RMK AO1
Loading
Personal Weather Stations






























Interactive Weather Map New forecast layout! Learn more

10-Day Weather Forecast

Advertisements
Track Severe Weather on mobile